createdAt,value
2018-07-21T00:00:56.551Z,1005.13
2018-07-21T00:01:56.573Z,1005.13
2018-07-21T00:02:56.598Z,1005.15
2018-07-21T00:03:56.621Z,1005.15
2018-07-21T00:04:56.659Z,1005.12
2018-07-21T00:05:56.675Z,1005.13
2018-07-21T00:06:56.701Z,1005.12
2018-07-21T00:07:56.723Z,1005.13
2018-07-21T00:08:56.748Z,1005.16
2018-07-21T00:09:56.777Z,1005.10
2018-07-21T00:10:56.803Z,1005.11
2018-07-21T00:11:56.827Z,1005.11
2018-07-21T00:12:56.856Z,1005.12
2018-07-21T00:13:56.875Z,1005.09
2018-07-21T00:14:56.903Z,1005.09
2018-07-21T00:15:56.928Z,1005.06
2018-07-21T00:16:56.951Z,1005.09
2018-07-21T00:17:56.985Z,1005.06
2018-07-21T00:18:57.002Z,1005.07
2018-07-21T00:19:57.027Z,1005.06
2018-07-21T00:20:57.053Z,1005.05
2018-07-21T00:21:57.081Z,1005.07
2018-07-21T00:22:57.103Z,1005.04
2018-07-21T00:23:57.131Z,1004.95
2018-07-21T00:24:57.154Z,1004.93
2018-07-21T00:25:58.134Z,1004.92
2018-07-21T00:26:57.208Z,1004.84
2018-07-21T00:27:57.229Z,1004.83
2018-07-21T00:28:57.259Z,1004.81
2018-07-21T00:29:57.282Z,1004.78
2018-07-21T00:30:57.309Z,1004.80
2018-07-21T00:31:57.333Z,1004.81
2018-07-21T00:32:57.356Z,1004.79
2018-07-21T00:33:57.388Z,1004.75
2018-07-21T00:34:57.407Z,1004.79
2018-07-21T00:35:57.433Z,1004.75
2018-07-21T00:36:57.456Z,1004.76
2018-07-21T00:37:57.484Z,1004.73
2018-07-21T00:38:57.511Z,1004.77
2018-07-21T00:39:57.532Z,1004.78
2018-07-21T00:40:57.557Z,1004.75
2018-07-21T00:41:57.583Z,1004.76
2018-07-21T00:42:57.608Z,1004.75
2018-07-21T00:43:57.635Z,1004.78
2018-07-21T00:44:57.657Z,1004.79
2018-07-21T00:45:57.683Z,1004.79
2018-07-21T00:46:57.706Z,1004.80
2018-07-21T00:47:57.732Z,1004.76
2018-07-21T00:48:57.757Z,1004.79
2018-07-21T00:49:57.787Z,1004.79
2018-07-21T00:50:57.810Z,1004.73
2018-07-21T00:51:57.835Z,1004.75
2018-07-21T00:52:57.859Z,1004.74
2018-07-21T00:53:57.883Z,1004.72
2018-07-21T00:54:57.912Z,1004.71
2018-07-21T00:55:57.933Z,1004.70
2018-07-21T00:56:57.962Z,1004.67
2018-07-21T00:57:58.235Z,1004.63
2018-07-21T00:58:58.013Z,1004.67
2018-07-21T00:59:58.034Z,1004.62
2018-07-21T01:00:58.061Z,1004.60
2018-07-21T01:01:58.087Z,1004.54
2018-07-21T01:02:58.108Z,1004.57
2018-07-21T01:03:58.133Z,1004.55
2018-07-21T01:04:58.158Z,1004.56
2018-07-21T01:05:58.187Z,1004.54
2018-07-21T01:06:58.209Z,1004.52
2018-07-21T01:07:58.239Z,1004.49
2018-07-21T01:08:58.258Z,1004.49
2018-07-21T01:09:58.286Z,1004.48
2018-07-21T01:10:58.311Z,1004.50
2018-07-21T01:11:58.332Z,1004.54
2018-07-21T01:12:58.367Z,1004.49
2018-07-21T01:13:58.383Z,1004.49
2018-07-21T01:14:58.412Z,1004.50
2018-07-21T01:15:58.434Z,1004.53
2018-07-21T01:16:58.456Z,1004.47
2018-07-21T01:17:58.484Z,1004.44
2018-07-21T01:18:58.508Z,1004.48
2018-07-21T01:19:58.534Z,1004.46
2018-07-21T01:20:58.555Z,1004.46
2018-07-21T01:21:58.580Z,1004.43
2018-07-21T01:22:58.610Z,1004.44
2018-07-21T01:23:58.629Z,1004.41
2018-07-21T01:24:58.658Z,1004.47
2018-07-21T01:25:58.681Z,1004.48
2018-07-21T01:26:58.705Z,1004.52
2018-07-21T01:27:58.728Z,1004.54
2018-07-21T01:28:58.753Z,1004.58
2018-07-21T01:29:58.781Z,1004.58
2018-07-21T01:30:58.806Z,1004.65
2018-07-21T01:31:58.828Z,1004.65
2018-07-21T01:32:58.855Z,1004.71
2018-07-21T01:33:58.877Z,1004.76
2018-07-21T01:34:58.903Z,1004.74
2018-07-21T01:35:58.926Z,1004.75
2018-07-21T01:36:58.956Z,1004.81
2018-07-21T01:37:58.977Z,1004.86
2018-07-21T01:38:59.001Z,1004.85
2018-07-21T01:39:59.027Z,1004.87
2018-07-21T01:40:59.050Z,1004.91
2018-07-21T01:41:59.078Z,1004.95
2018-07-21T01:42:59.100Z,1004.94
2018-07-21T01:43:59.128Z,1004.97
2018-07-21T01:44:59.154Z,1005.00
2018-07-21T01:45:59.175Z,1005.05
2018-07-21T01:46:59.203Z,1005.04
2018-07-21T01:47:59.227Z,1005.10
2018-07-21T01:48:59.249Z,1005.11
2018-07-21T01:49:59.274Z,1005.12
2018-07-21T01:50:59.300Z,1005.16
2018-07-21T01:51:59.624Z,1005.14
2018-07-21T01:52:59.347Z,1005.14
2018-07-21T01:53:59.379Z,1005.16
2018-07-21T01:54:59.402Z,1005.14
2018-07-21T01:55:59.424Z,1005.11
2018-07-21T01:56:59.450Z,1005.14
2018-07-21T01:57:59.472Z,1005.14
2018-07-21T01:58:59.497Z,1005.14
2018-07-21T01:59:59.522Z,1005.16
2018-07-21T02:00:59.549Z,1005.17
2018-07-21T02:01:59.576Z,1005.13
2018-07-21T02:02:59.599Z,1005.12
2018-07-21T02:03:59.622Z,1005.11
2018-07-21T02:04:59.645Z,1005.09
2018-07-21T02:05:59.673Z,1005.10
2018-07-21T02:06:59.699Z,1005.06
2018-07-21T02:07:59.720Z,1005.05
2018-07-21T02:08:59.744Z,1005.09
2018-07-21T02:09:59.769Z,1005.09
2018-07-21T02:10:59.799Z,1005.09
2018-07-21T02:11:59.821Z,1005.09
2018-07-21T02:12:59.843Z,1005.07
2018-07-21T02:13:59.870Z,1005.08
2018-07-21T02:14:59.893Z,1005.03
2018-07-21T02:15:59.919Z,1005.05
2018-07-21T02:16:59.944Z,1005.01
2018-07-21T02:17:59.967Z,1005.03
2018-07-21T02:18:59.991Z,1005.01
2018-07-21T02:20:00.022Z,1004.98
2018-07-21T02:21:00.041Z,1004.97
2018-07-21T02:22:00.068Z,1004.96
2018-07-21T02:23:00.089Z,1004.97
2018-07-21T02:24:00.113Z,1004.98
2018-07-21T02:25:00.138Z,1004.94
2018-07-21T02:26:00.165Z,1004.88
2018-07-21T02:27:00.187Z,1004.92
2018-07-21T02:28:00.211Z,1004.83
2018-07-21T02:29:00.239Z,1004.89
2018-07-21T02:30:00.263Z,1004.85
2018-07-21T02:31:00.285Z,1004.91
2018-07-21T02:32:00.312Z,1004.88
2018-07-21T02:33:00.344Z,1004.88
2018-07-21T02:34:00.362Z,1004.89
2018-07-21T02:35:00.393Z,1004.89
2018-07-21T02:36:00.407Z,1004.90
2018-07-21T02:37:00.432Z,1004.91
2018-07-21T02:38:00.457Z,1004.88
2018-07-21T02:39:00.484Z,1004.90
2018-07-21T02:40:00.517Z,1004.88
2018-07-21T02:41:00.532Z,1004.86
2018-07-21T02:42:00.558Z,1004.82
2018-07-21T02:43:00.582Z,1004.86
2018-07-21T02:44:00.604Z,1004.83
2018-07-21T02:45:00.628Z,1004.84
2018-07-21T02:46:00.659Z,1004.78
2018-07-21T02:47:00.677Z,1004.78
2018-07-21T02:48:00.705Z,1004.76
2018-07-21T02:49:00.726Z,1004.72
2018-07-21T02:50:00.755Z,1004.70
2018-07-21T02:51:00.776Z,1004.67
2018-07-21T02:52:00.814Z,1004.67
2018-07-21T02:53:00.835Z,1004.64
2018-07-21T02:54:00.849Z,1004.66
2018-07-21T02:55:00.873Z,1004.60
2018-07-21T02:56:00.896Z,1004.64
2018-07-21T02:57:01.125Z,1004.64
2018-07-21T02:58:00.950Z,1004.57
2018-07-21T02:59:00.976Z,1004.59
2018-07-21T03:00:00.995Z,1004.63
2018-07-21T03:01:01.021Z,1004.57
2018-07-21T03:02:01.044Z,1004.57
2018-07-21T03:03:01.072Z,1004.57
2018-07-21T03:04:01.099Z,1004.55
2018-07-21T03:05:01.120Z,1004.52
2018-07-21T03:06:01.142Z,1004.56
2018-07-21T03:07:01.167Z,1004.54
2018-07-21T03:08:01.192Z,1004.53
2018-07-21T03:09:01.217Z,1004.55
2018-07-21T03:10:01.360Z,1004.53
2018-07-21T03:11:01.265Z,1004.52
2018-07-21T03:12:01.291Z,1004.53
2018-07-21T03:13:01.315Z,1004.48
2018-07-21T03:14:01.340Z,1004.51
2018-07-21T03:15:01.363Z,1004.52
2018-07-21T03:16:01.385Z,1004.52
2018-07-21T03:17:01.411Z,1004.49
2018-07-21T03:18:01.438Z,1004.48
2018-07-21T03:19:01.460Z,1004.50
2018-07-21T03:20:01.482Z,1004.43
2018-07-21T03:21:01.510Z,1004.45
2018-07-21T03:22:01.531Z,1004.47
2018-07-21T03:23:01.559Z,1004.51
2018-07-21T03:24:01.581Z,1004.47
2018-07-21T03:25:01.605Z,1004.45
2018-07-21T03:26:01.631Z,1004.51
2018-07-21T03:27:01.656Z,1004.53
2018-07-21T03:28:01.676Z,1004.47
2018-07-21T03:29:01.703Z,1004.49
2018-07-21T03:30:01.729Z,1004.46
2018-07-21T03:31:01.853Z,1004.49
2018-07-21T03:32:01.774Z,1004.47
2018-07-21T03:33:01.801Z,1004.44
2018-07-21T03:34:01.827Z,1004.46
2018-07-21T03:35:01.847Z,1004.48
2018-07-21T03:36:01.871Z,1004.48
2018-07-21T03:37:01.897Z,1004.52
2018-07-21T03:38:01.922Z,1004.50
2018-07-21T03:39:01.947Z,1004.50
2018-07-21T03:40:01.967Z,1004.52
2018-07-21T03:41:01.994Z,1004.54
2018-07-21T03:42:02.015Z,1004.47
2018-07-21T03:43:02.043Z,1004.50
2018-07-21T03:44:02.067Z,1004.49
2018-07-21T03:45:02.093Z,1004.48
2018-07-21T03:46:02.114Z,1004.44
2018-07-21T03:47:02.141Z,1004.45
2018-07-21T03:48:02.160Z,1004.46
2018-07-21T03:49:02.189Z,1004.46
2018-07-21T03:50:02.210Z,1004.46
2018-07-21T03:51:02.234Z,1004.46
2018-07-21T03:52:02.260Z,1004.45
2018-07-21T03:53:02.283Z,1004.44
2018-07-21T03:54:02.308Z,1004.44
2018-07-21T03:55:02.402Z,1004.44
2018-07-21T03:56:02.355Z,1004.38
2018-07-21T03:57:02.378Z,1004.42
2018-07-21T03:58:02.402Z,1004.42
2018-07-21T03:59:02.430Z,1004.41
2018-07-21T04:00:02.453Z,1004.42
2018-07-21T04:01:02.475Z,1004.41
2018-07-21T04:02:02.499Z,1004.42
2018-07-21T04:03:02.524Z,1004.44
2018-07-21T04:04:02.550Z,1004.46
2018-07-21T04:05:02.571Z,1004.46
2018-07-21T04:06:02.596Z,1004.47
2018-07-21T04:07:02.623Z,1004.49
2018-07-21T04:08:02.647Z,1004.45
2018-07-21T04:09:02.683Z,1004.42
2018-07-21T04:10:02.694Z,1004.43
2018-07-21T04:11:02.720Z,1004.51
2018-07-21T04:12:02.742Z,1004.46
2018-07-21T04:13:02.768Z,1004.47
2018-07-21T04:14:02.791Z,1004.46
2018-07-21T04:15:02.816Z,1004.43
2018-07-21T04:16:02.840Z,1004.40
2018-07-21T04:17:02.864Z,1004.42
2018-07-21T04:18:02.889Z,1004.41
2018-07-21T04:19:02.913Z,1004.44
2018-07-21T04:20:02.936Z,1004.41
2018-07-21T04:21:02.974Z,1004.44
2018-07-21T04:22:02.984Z,1004.43
2018-07-21T04:23:03.009Z,1004.47
2018-07-21T04:24:03.082Z,1004.48
2018-07-21T04:25:03.058Z,1004.51
2018-07-21T04:26:03.081Z,1004.48
2018-07-21T04:27:03.108Z,1004.48
2018-07-21T04:28:03.126Z,1004.53
2018-07-21T04:29:03.150Z,1004.56
2018-07-21T04:30:03.177Z,1004.58
2018-07-21T04:31:03.201Z,1004.62
2018-07-21T04:32:03.224Z,1004.62
2018-07-21T04:33:03.246Z,1004.58
2018-07-21T04:34:03.273Z,1004.61
2018-07-21T04:35:03.298Z,1004.64
2018-07-21T04:36:03.322Z,1004.64
2018-07-21T04:37:03.345Z,1004.63
2018-07-21T04:38:03.372Z,1004.61
2018-07-21T04:39:03.393Z,1004.59
2018-07-21T04:40:03.417Z,1004.61
2018-07-21T04:41:03.440Z,1004.62
2018-07-21T04:42:03.468Z,1004.62
2018-07-21T04:43:03.492Z,1004.61
2018-07-21T04:44:03.515Z,1004.62
2018-07-21T04:45:03.540Z,1004.64
2018-07-21T04:46:03.561Z,1004.63
2018-07-21T04:47:03.586Z,1004.60
2018-07-21T04:48:03.610Z,1004.63
2018-07-21T04:49:03.634Z,1004.60
2018-07-21T04:50:03.658Z,1004.63
2018-07-21T04:51:03.683Z,1004.63
2018-07-21T04:52:03.705Z,1004.64
2018-07-21T04:53:03.730Z,1004.62
2018-07-21T04:54:03.755Z,1004.63
2018-07-21T04:55:03.779Z,1004.61
2018-07-21T04:56:03.802Z,1004.62
2018-07-21T04:57:03.827Z,1004.67
2018-07-21T04:58:03.854Z,1004.64
2018-07-21T04:59:03.876Z,1004.67
2018-07-21T05:00:03.899Z,1004.67
2018-07-21T05:01:03.947Z,1004.62
2018-07-21T05:02:03.948Z,1004.68
2018-07-21T05:03:03.974Z,1004.68
2018-07-21T05:04:04.000Z,1004.71
2018-07-21T05:05:04.022Z,1004.76
2018-07-21T05:06:04.047Z,1004.74
2018-07-21T05:07:04.119Z,1004.72
2018-07-21T05:08:04.094Z,1004.72
2018-07-21T05:09:04.120Z,1004.69
2018-07-21T05:10:04.141Z,1004.64
2018-07-21T05:11:04.168Z,1004.71
2018-07-21T05:12:04.228Z,1004.67
2018-07-21T05:13:04.219Z,1004.67
2018-07-21T05:14:04.239Z,1004.64
2018-07-21T05:15:04.261Z,1004.65
2018-07-21T05:16:04.287Z,1004.64
2018-07-21T05:17:04.309Z,1004.61
2018-07-21T05:18:04.335Z,1004.60
2018-07-21T05:19:04.363Z,1004.60
2018-07-21T05:20:04.385Z,1004.58
2018-07-21T05:21:04.409Z,1004.57
2018-07-21T05:22:04.430Z,1004.60
2018-07-21T05:23:04.457Z,1004.59
2018-07-21T05:24:04.481Z,1004.57
2018-07-21T05:25:04.508Z,1004.60
2018-07-21T05:26:04.628Z,1004.60
2018-07-21T05:27:04.554Z,1004.56
2018-07-21T05:28:04.578Z,1004.63
2018-07-21T05:29:04.602Z,1004.57
2018-07-21T05:30:04.628Z,1004.65
2018-07-21T05:31:04.649Z,1004.60
2018-07-21T05:32:04.672Z,1004.63
2018-07-21T05:33:04.701Z,1004.63
2018-07-21T05:34:04.727Z,1004.64
2018-07-21T05:35:04.750Z,1004.66
2018-07-21T05:36:04.770Z,1004.66
2018-07-21T05:37:04.801Z,1004.65
2018-07-21T05:38:04.818Z,1004.69
2018-07-21T05:39:04.864Z,1004.69
2018-07-21T05:40:04.870Z,1004.75
2018-07-21T05:41:04.894Z,1004.78
2018-07-21T05:42:04.918Z,1004.79
2018-07-21T05:43:04.945Z,1004.79
2018-07-21T05:44:04.964Z,1004.80
2018-07-21T05:45:05.017Z,1004.78
2018-07-21T05:46:05.016Z,1004.82
2018-07-21T05:47:05.041Z,1004.88
2018-07-21T05:48:05.064Z,1004.84
2018-07-21T05:49:05.093Z,1004.88
2018-07-21T05:50:05.112Z,1004.88
2018-07-21T05:51:05.136Z,1004.89
2018-07-21T05:52:05.162Z,1004.90
2018-07-21T05:53:05.222Z,1004.87
2018-07-21T05:54:05.210Z,1004.87
2018-07-21T05:55:05.233Z,1004.91
2018-07-21T05:56:05.258Z,1004.88
2018-07-21T05:57:05.282Z,1004.90
2018-07-21T05:58:05.310Z,1004.93
2018-07-21T05:59:05.335Z,1004.96
2018-07-21T06:00:05.361Z,1004.96
2018-07-21T06:01:05.380Z,1004.94
2018-07-21T06:02:05.405Z,1004.94
2018-07-21T06:03:05.477Z,1004.98
2018-07-21T06:04:05.457Z,1005.01
2018-07-21T06:05:05.479Z,1005.00
2018-07-21T06:06:05.506Z,1005.04
2018-07-21T06:07:05.532Z,1005.07
2018-07-21T06:08:05.556Z,1005.13
2018-07-21T06:09:05.580Z,1005.11
2018-07-21T06:10:05.615Z,1005.14
2018-07-21T06:11:05.650Z,1005.13
2018-07-21T06:12:05.659Z,1005.17
2018-07-21T06:13:05.682Z,1005.16
2018-07-21T06:14:05.706Z,1005.19
2018-07-21T06:15:05.732Z,1005.17
2018-07-21T06:16:05.754Z,1005.14
2018-07-21T06:17:05.851Z,1005.16
2018-07-21T06:18:05.805Z,1005.13
2018-07-21T06:19:05.828Z,1005.12
2018-07-21T06:20:05.856Z,1005.13
2018-07-21T06:21:05.879Z,1005.13
2018-07-21T06:22:05.905Z,1005.16
2018-07-21T06:23:05.929Z,1005.16
2018-07-21T06:24:05.953Z,1005.15
2018-07-21T06:25:06.025Z,1005.16
2018-07-21T06:26:06.004Z,1005.15
2018-07-21T06:27:06.430Z,1005.16
2018-07-21T06:28:06.095Z,1005.15
2018-07-21T06:29:06.079Z,1005.18
2018-07-21T06:30:06.111Z,1005.17
2018-07-21T06:31:06.130Z,1005.23
2018-07-21T06:32:06.152Z,1005.23
2018-07-21T06:33:06.179Z,1005.24
2018-07-21T06:34:06.201Z,1005.25
2018-07-21T06:35:06.225Z,1005.28
2018-07-21T06:36:06.249Z,1005.32
2018-07-21T06:37:06.280Z,1005.35
2018-07-21T06:38:06.299Z,1005.37
2018-07-21T06:39:06.332Z,1005.37
2018-07-21T06:40:06.350Z,1005.37
2018-07-21T06:41:06.376Z,1005.41
2018-07-21T06:42:06.405Z,1005.34
2018-07-21T06:43:06.454Z,1005.38
2018-07-21T06:44:06.451Z,1005.41
2018-07-21T06:45:06.478Z,1005.44
2018-07-21T06:46:06.503Z,1005.43
2018-07-21T06:47:06.529Z,1005.48
2018-07-21T06:48:06.550Z,1005.46
2018-07-21T06:49:06.576Z,1005.48
2018-07-21T06:50:06.603Z,1005.55
2018-07-21T06:51:06.631Z,1005.56
2018-07-21T06:52:06.650Z,1005.56
2018-07-21T06:53:06.680Z,1005.57
2018-07-21T06:54:06.701Z,1005.61
2018-07-21T06:55:06.731Z,1005.58
2018-07-21T06:56:06.754Z,1005.60
2018-07-21T06:57:06.778Z,1005.61
2018-07-21T06:58:06.802Z,1005.58
2018-07-21T06:59:06.856Z,1005.57
2018-07-21T07:00:06.854Z,1005.58
2018-07-21T07:01:06.880Z,1005.58
2018-07-21T07:02:06.902Z,1005.58
2018-07-21T07:03:06.932Z,1005.60
2018-07-21T07:04:06.956Z,1005.56
2018-07-21T07:05:07.026Z,1005.59
2018-07-21T07:06:07.005Z,1005.56
2018-07-21T07:07:07.030Z,1005.53
2018-07-21T07:08:07.057Z,1005.57
2018-07-21T07:09:07.080Z,1005.58
2018-07-21T07:10:07.159Z,1005.64
2018-07-21T07:11:07.133Z,1005.64
2018-07-21T07:12:07.158Z,1005.64
2018-07-21T07:13:07.181Z,1005.65
2018-07-21T07:14:07.209Z,1005.64
2018-07-21T07:15:07.235Z,1005.66
2018-07-21T07:16:07.257Z,1005.69
2018-07-21T07:17:07.290Z,1005.68
2018-07-21T07:18:07.309Z,1005.66
2018-07-21T07:19:07.334Z,1005.64
2018-07-21T07:20:07.358Z,1005.66
2018-07-21T07:21:07.385Z,1005.63
2018-07-21T07:22:07.408Z,1005.67
2018-07-21T07:23:07.437Z,1005.64
2018-07-21T07:24:07.462Z,1005.64
2018-07-21T07:25:07.487Z,1005.63
2018-07-21T07:26:07.512Z,1005.67
2018-07-21T07:27:07.538Z,1005.66
2018-07-21T07:28:07.566Z,1005.67
2018-07-21T07:29:07.586Z,1005.64
2018-07-21T07:30:07.612Z,1005.69
2018-07-21T07:31:07.639Z,1005.60
2018-07-21T07:32:07.667Z,1005.60
2018-07-21T07:33:07.690Z,1005.53
2018-07-21T07:34:07.713Z,1005.55
2018-07-21T07:35:07.777Z,1005.53
2018-07-21T07:36:07.769Z,1005.51
2018-07-21T07:37:07.794Z,1005.54
2018-07-21T07:38:07.815Z,1005.54
2018-07-21T07:39:07.843Z,1005.56
2018-07-21T07:40:07.868Z,1005.54
2018-07-21T07:41:07.894Z,1005.57
2018-07-21T07:42:07.930Z,1005.57
2018-07-21T07:43:07.948Z,1005.58
2018-07-21T07:44:07.969Z,1005.62
2018-07-21T07:45:08.002Z,1005.60
2018-07-21T07:46:08.021Z,1005.61
2018-07-21T07:47:08.055Z,1005.70
2018-07-21T07:48:08.071Z,1005.62
2018-07-21T07:49:08.099Z,1005.61
2018-07-21T07:50:08.123Z,1005.62
2018-07-21T07:51:08.150Z,1005.62
2018-07-21T07:52:08.181Z,1005.63
2018-07-21T07:53:08.200Z,1005.63
2018-07-21T07:54:08.229Z,1005.62
2018-07-21T07:55:08.252Z,1005.64
2018-07-21T07:56:08.280Z,1005.65
2018-07-21T07:57:08.305Z,1005.60
2018-07-21T07:58:08.331Z,1005.62
2018-07-21T07:59:08.354Z,1005.60
2018-07-21T08:00:08.382Z,1005.61
2018-07-21T08:01:08.418Z,1005.62
2018-07-21T08:02:08.431Z,1005.61
2018-07-21T08:03:08.460Z,1005.64
2018-07-21T08:04:08.486Z,1005.61
2018-07-21T08:05:08.508Z,1005.60
2018-07-21T08:06:08.534Z,1005.66
2018-07-21T08:07:08.563Z,1005.62
2018-07-21T08:08:08.592Z,1005.67
2018-07-21T08:09:08.615Z,1005.67
2018-07-21T08:10:08.640Z,1005.66
2018-07-21T08:11:08.665Z,1005.71
2018-07-21T08:12:08.693Z,1005.70
2018-07-21T08:13:08.719Z,1005.71
2018-07-21T08:14:08.797Z,1005.71
2018-07-21T08:15:08.767Z,1005.72
2018-07-21T08:16:08.795Z,1005.73
2018-07-21T08:17:08.822Z,1005.71
2018-07-21T08:18:08.872Z,1005.71
2018-07-21T08:19:08.871Z,1005.73
2018-07-21T08:20:08.900Z,1005.75
2018-07-21T08:21:08.923Z,1005.73
2018-07-21T08:22:08.948Z,1005.74
2018-07-21T08:23:08.977Z,1005.75
2018-07-21T08:24:09.003Z,1005.72
2018-07-21T08:25:09.029Z,1005.71
2018-07-21T08:26:09.055Z,1005.71
2018-07-21T08:27:09.081Z,1005.73
2018-07-21T08:28:09.109Z,1005.76
2018-07-21T08:29:09.203Z,1005.79
2018-07-21T08:30:09.169Z,1005.78
2018-07-21T08:31:09.236Z,1005.75
2018-07-21T08:32:09.220Z,1005.76
2018-07-21T08:33:09.240Z,1005.73
2018-07-21T08:34:09.264Z,1005.77
2018-07-21T08:35:09.290Z,1005.77
2018-07-21T08:36:09.315Z,1005.78
2018-07-21T08:37:09.345Z,1005.76
2018-07-21T08:38:09.369Z,1005.79
2018-07-21T08:39:09.397Z,1005.79
2018-07-21T08:40:09.424Z,1005.78
2018-07-21T08:41:09.455Z,1005.76
2018-07-21T08:42:09.476Z,1005.76
2018-07-21T08:43:09.502Z,1005.71
2018-07-21T08:44:09.530Z,1005.72
2018-07-21T08:45:09.558Z,1005.72
2018-07-21T08:46:09.587Z,1005.72
2018-07-21T08:47:09.616Z,1005.72
2018-07-21T08:48:09.641Z,1005.76
2018-07-21T08:49:09.665Z,1005.72
2018-07-21T08:50:09.692Z,1005.70
2018-07-21T08:51:09.716Z,1005.69
2018-07-21T08:52:09.745Z,1005.71
2018-07-21T08:53:09.772Z,1005.67
2018-07-21T08:54:09.796Z,1005.70
2018-07-21T08:55:09.825Z,1005.67
2018-07-21T08:56:09.863Z,1005.69
2018-07-21T08:57:09.879Z,1005.70
2018-07-21T08:58:09.904Z,1005.66
2018-07-21T08:59:09.934Z,1005.66
2018-07-21T09:00:09.959Z,1005.66
2018-07-21T09:01:09.986Z,1005.68
2018-07-21T09:02:10.013Z,1005.67
2018-07-21T09:03:10.042Z,1005.60
2018-07-21T09:04:10.066Z,1005.61
2018-07-21T09:05:10.100Z,1005.58
2018-07-21T09:06:10.120Z,1005.64
2018-07-21T09:07:10.145Z,1005.67
2018-07-21T09:08:10.173Z,1005.63
2018-07-21T09:09:10.203Z,1005.65
2018-07-21T09:10:10.235Z,1005.64
2018-07-21T09:11:10.253Z,1005.66
2018-07-21T09:12:10.282Z,1005.63
2018-07-21T09:13:10.415Z,1005.64
2018-07-21T09:14:10.339Z,1005.66
2018-07-21T09:15:10.361Z,1005.63
2018-07-21T09:16:10.387Z,1005.66
2018-07-21T09:17:10.417Z,1005.67
2018-07-21T09:18:10.443Z,1005.65
2018-07-21T09:19:10.471Z,1005.64
2018-07-21T09:20:10.496Z,1005.70
2018-07-21T09:21:10.526Z,1005.69
2018-07-21T09:22:10.550Z,1005.71
2018-07-21T09:23:10.578Z,1005.70
2018-07-21T09:24:10.608Z,1005.71
2018-07-21T09:25:10.630Z,1005.73
2018-07-21T09:26:10.661Z,1005.75
2018-07-21T09:27:10.687Z,1005.74
2018-07-21T09:28:10.739Z,1005.76
2018-07-21T09:29:10.744Z,1005.72
2018-07-21T09:30:10.771Z,1005.70
2018-07-21T09:31:10.795Z,1005.72
2018-07-21T09:32:10.822Z,1005.70
2018-07-21T09:33:10.853Z,1005.73
2018-07-21T09:34:10.905Z,1005.74
2018-07-21T09:35:10.907Z,1005.75
2018-07-21T09:36:10.934Z,1005.77
2018-07-21T09:37:10.959Z,1005.81
2018-07-21T09:38:10.989Z,1005.78
2018-07-21T09:39:11.015Z,1005.82
2018-07-21T09:40:11.057Z,1005.79
2018-07-21T09:41:11.070Z,1005.78
2018-07-21T09:42:11.098Z,1005.82
2018-07-21T09:43:11.123Z,1005.83
2018-07-21T09:44:11.153Z,1005.81
2018-07-21T09:45:11.179Z,1005.81
2018-07-21T09:46:11.211Z,1005.80
2018-07-21T09:47:11.237Z,1005.76
2018-07-21T09:48:11.262Z,1005.78
2018-07-21T09:49:11.318Z,1005.77
2018-07-21T09:50:11.315Z,1005.77
2018-07-21T09:51:11.345Z,1005.81
2018-07-21T09:52:11.370Z,1005.79
2018-07-21T09:53:11.400Z,1005.79
2018-07-21T09:54:11.428Z,1005.80
2018-07-21T09:55:11.457Z,1005.79
2018-07-21T09:56:11.484Z,1005.79
2018-07-21T09:57:11.507Z,1005.80
2018-07-21T09:58:11.537Z,1005.83
2018-07-21T09:59:11.561Z,1005.82
2018-07-21T10:00:11.588Z,1005.78
2018-07-21T10:01:11.624Z,1005.78
2018-07-21T10:02:11.648Z,1005.72
2018-07-21T10:03:11.674Z,1005.73
2018-07-21T10:04:11.699Z,1005.76
2018-07-21T10:05:11.729Z,1005.79
2018-07-21T10:06:11.758Z,1005.78
2018-07-21T10:07:11.783Z,1005.81
2018-07-21T10:08:11.808Z,1005.74
2018-07-21T10:09:11.835Z,1005.80
2018-07-21T10:10:11.866Z,1005.80
2018-07-21T10:11:11.959Z,1005.77
2018-07-21T10:12:11.918Z,1005.82
2018-07-21T10:13:11.951Z,1005.80
2018-07-21T10:14:11.976Z,1005.73
2018-07-21T10:15:12.001Z,1005.74
2018-07-21T10:16:12.031Z,1005.75
2018-07-21T10:17:12.056Z,1005.74
2018-07-21T10:18:12.085Z,1005.74
2018-07-21T10:19:12.117Z,1005.74
2018-07-21T10:20:12.142Z,1005.72
2018-07-21T10:21:12.166Z,1005.78
2018-07-21T10:22:12.277Z,1005.79
2018-07-21T10:23:12.226Z,1005.78
2018-07-21T10:24:12.249Z,1005.75
2018-07-21T10:25:12.281Z,1005.74
2018-07-21T10:26:12.308Z,1005.79
2018-07-21T10:27:12.337Z,1005.78
2018-07-21T10:28:12.382Z,1005.82
2018-07-21T10:29:12.393Z,1005.86
2018-07-21T10:30:12.461Z,1005.91
2018-07-21T10:31:12.749Z,1005.86
2018-07-21T10:32:12.476Z,1005.86
2018-07-21T10:33:12.638Z,1005.87
2018-07-21T10:34:12.531Z,1005.89
2018-07-21T10:35:12.564Z,1005.94
2018-07-21T10:36:12.586Z,1005.87
2018-07-21T10:37:12.617Z,1005.87
2018-07-21T10:38:12.711Z,1005.90
2018-07-21T10:39:12.671Z,1005.87
2018-07-21T10:40:12.697Z,1005.85
2018-07-21T10:41:12.725Z,1005.88
2018-07-21T10:42:12.755Z,1005.87
2018-07-21T10:43:12.781Z,1005.89
2018-07-21T10:44:12.809Z,1005.92
2018-07-21T10:45:12.839Z,1005.89
2018-07-21T10:46:12.866Z,1005.88
2018-07-21T10:47:12.898Z,1005.87
2018-07-21T10:48:12.923Z,1005.88
2018-07-21T10:49:12.949Z,1005.87
2018-07-21T10:50:12.980Z,1005.85
2018-07-21T10:51:13.012Z,1005.87
2018-07-21T10:52:13.036Z,1005.85
2018-07-21T10:53:13.068Z,1005.81
2018-07-21T10:54:13.094Z,1005.84
2018-07-21T10:55:13.120Z,1005.86
2018-07-21T10:56:13.151Z,1005.85
2018-07-21T10:57:13.181Z,1005.85
2018-07-21T10:58:13.210Z,1005.80
2018-07-21T10:59:13.234Z,1005.83
2018-07-21T11:00:13.274Z,1005.84
2018-07-21T11:01:13.294Z,1005.80
2018-07-21T11:02:13.321Z,1005.83
2018-07-21T11:03:13.349Z,1005.82
2018-07-21T11:04:13.378Z,1005.84
2018-07-21T11:05:13.406Z,1005.85
2018-07-21T11:06:13.435Z,1005.83
2018-07-21T11:07:13.460Z,1005.86
2018-07-21T11:08:13.492Z,1005.84
2018-07-21T11:09:13.519Z,1005.88
2018-07-21T11:10:13.549Z,1005.82
2018-07-21T11:11:13.575Z,1005.87
2018-07-21T11:12:13.603Z,1005.87
2018-07-21T11:13:13.632Z,1005.84
2018-07-21T11:14:13.659Z,1005.82
2018-07-21T11:15:13.770Z,1005.86
2018-07-21T11:16:13.718Z,1005.82
2018-07-21T11:17:13.744Z,1005.84
2018-07-21T11:18:13.772Z,1005.81
2018-07-21T11:19:13.802Z,1005.81
2018-07-21T11:20:13.833Z,1005.81
2018-07-21T11:21:13.865Z,1005.80
2018-07-21T11:22:13.887Z,1005.75
2018-07-21T11:23:13.915Z,1005.73
2018-07-21T11:24:13.946Z,1005.69
2018-07-21T11:25:13.973Z,1005.75
2018-07-21T11:26:14.004Z,1005.75
2018-07-21T11:27:14.030Z,1005.71
2018-07-21T11:28:14.059Z,1005.73
2018-07-21T11:29:14.096Z,1005.73
2018-07-21T11:30:14.117Z,1005.74
2018-07-21T11:31:14.147Z,1005.73
2018-07-21T11:32:14.172Z,1005.77
2018-07-21T11:33:14.202Z,1005.73
2018-07-21T11:34:14.230Z,1005.75
2018-07-21T11:35:14.369Z,1005.78
2018-07-21T11:36:14.498Z,1005.77
2018-07-21T11:37:14.315Z,1005.76
2018-07-21T11:38:14.345Z,1005.74
2018-07-21T11:39:14.391Z,1005.69
2018-07-21T11:40:14.399Z,1005.72
2018-07-21T11:41:14.431Z,1005.75
2018-07-21T11:42:14.459Z,1005.74
2018-07-21T11:43:14.487Z,1005.74
2018-07-21T11:44:14.521Z,1005.76
2018-07-21T11:45:14.546Z,1005.76
2018-07-21T11:46:14.578Z,1005.73
2018-07-21T11:47:14.601Z,1005.73
2018-07-21T11:48:14.636Z,1005.76
2018-07-21T11:49:14.660Z,1005.72
2018-07-21T11:50:14.687Z,1005.66
2018-07-21T11:51:14.717Z,1005.67
2018-07-21T11:52:14.744Z,1005.68
2018-07-21T11:53:14.771Z,1005.74
2018-07-21T11:54:14.803Z,1005.77
2018-07-21T11:55:14.829Z,1005.73
2018-07-21T11:56:14.859Z,1005.78
2018-07-21T11:57:14.889Z,1005.77
2018-07-21T11:58:14.915Z,1005.74
2018-07-21T11:59:14.993Z,1005.75
2018-07-21T12:00:14.972Z,1005.76
2018-07-21T12:01:14.999Z,1005.75
2018-07-21T12:02:15.030Z,1005.75
2018-07-21T12:03:15.057Z,1005.75
2018-07-21T12:04:15.089Z,1005.74
2018-07-21T12:05:15.140Z,1005.72
2018-07-21T12:06:15.144Z,1005.69